sensor_id;sensor_type;location;lat;lon;timestamp;temperature;humidity
19829;DHT22;10075;50.924;4.396;2023-04-24T00:00:16;10.20;99.90
19829;DHT22;10075;50.924;4.396;2023-04-24T00:02:44;10.20;99.90
19829;DHT22;10075;50.924;4.396;2023-04-24T00:05:13;10.20;99.90
19829;DHT22;10075;50.924;4.396;2023-04-24T00:07:42;10.20;99.90
19829;DHT22;10075;50.924;4.396;2023-04-24T00:10:10;10.20;99.90
19829;DHT22;10075;50.924;4.396;2023-04-24T00:12:37;10.20;99.90
19829;DHT22;10075;50.924;4.396;2023-04-24T00:15:05;10.10;99.90
19829;DHT22;10075;50.924;4.396;2023-04-24T00:17:32;10.10;99.90
19829;DHT22;10075;50.924;4.396;2023-04-24T00:19:59;10.10;99.90
19829;DHT22;10075;50.924;4.396;2023-04-24T00:22:30;10.10;99.90
19829;DHT22;10075;50.924;4.396;2023-04-24T00:24:59;10.10;99.90
19829;DHT22;10075;50.924;4.396;2023-04-24T00:27:26;10.10;99.90
19829;DHT22;10075;50.924;4.396;2023-04-24T00:29:53;10.00;99.90
19829;DHT22;10075;50.924;4.396;2023-04-24T00:32:20;10.00;99.90
19829;DHT22;10075;50.924;4.396;2023-04-24T00:34:47;10.00;99.90
19829;DHT22;10075;50.924;4.396;2023-04-24T00:37:14;9.90;99.90
19829;DHT22;10075;50.924;4.396;2023-04-24T00:39:41;9.90;99.90
19829;DHT22;10075;50.924;4.396;2023-04-24T00:42:09;9.90;99.90
19829;DHT22;10075;50.924;4.396;2023-04-24T00:44:36;9.90;99.90
19829;DHT22;10075;50.924;4.396;2023-04-24T00:47:04;9.90;99.90
19829;DHT22;10075;50.924;4.396;2023-04-24T00:49:31;9.90;99.90
19829;DHT22;10075;50.924;4.396;2023-04-24T00:51:58;10.00;99.90
19829;DHT22;10075;50.924;4.396;2023-04-24T00:54:25;9.90;99.90
19829;DHT22;10075;50.924;4.396;2023-04-24T00:56:52;9.90;99.90
19829;DHT22;10075;50.924;4.396;2023-04-24T00:59:20;9.90;99.90
19829;DHT22;10075;50.924;4.396;2023-04-24T01:01:47;9.90;99.90
19829;DHT22;10075;50.924;4.396;2023-04-24T01:04:14;9.90;99.90
19829;DHT22;10075;50.924;4.396;2023-04-24T01:06:44;9.90;99.90
19829;DHT22;10075;50.924;4.396;2023-04-24T01:09:12;9.90;99.90
19829;DHT22;10075;50.924;4.396;2023-04-24T01:11:41;9.90;99.90
19829;DHT22;10075;50.924;4.396;2023-04-24T01:14:09;9.80;99.90
19829;DHT22;10075;50.924;4.396;2023-04-24T01:16:38;9.80;99.90
19829;DHT22;10075;50.924;4.396;2023-04-24T01:19:06;9.70;99.90
19829;DHT22;10075;50.924;4.396;2023-04-24T01:21:36;9.70;99.90
19829;DHT22;10075;50.924;4.396;2023-04-24T01:24:05;9.70;99.90
19829;DHT22;10075;50.924;4.396;2023-04-24T01:26:33;9.80;99.90
19829;DHT22;10075;50.924;4.396;2023-04-24T01:29:00;9.80;99.90
19829;DHT22;10075;50.924;4.396;2023-04-24T01:31:27;9.80;99.90
19829;DHT22;10075;50.924;4.396;2023-04-24T01:33:54;9.70;99.90
19829;DHT22;10075;50.924;4.396;2023-04-24T01:36:22;9.70;99.90
19829;DHT22;10075;50.924;4.396;2023-04-24T01:38:51;9.70;99.90
19829;DHT22;10075;50.924;4.396;2023-04-24T01:41:19;9.70;99.90
19829;DHT22;10075;50.924;4.396;2023-04-24T01:43:47;9.70;99.90
19829;DHT22;10075;50.924;4.396;2023-04-24T01:46:15;9.80;99.90
19829;DHT22;10075;50.924;4.396;2023-04-24T01:48:42;9.80;99.90
19829;DHT22;10075;50.924;4.396;2023-04-24T01:51:09;9.80;99.90
19829;DHT22;10075;50.924;4.396;2023-04-24T01:53:36;9.80;99.90
19829;DHT22;10075;50.924;4.396;2023-04-24T01:56:03;9.80;99.90
19829;DHT22;10075;50.924;4.396;2023-04-24T01:58:32;9.80;99.90
19829;DHT22;10075;50.924;4.396;2023-04-24T02:00:59;9.70;99.90
19829;DHT22;10075;50.924;4.396;2023-04-24T02:03:26;9.70;99.90
19829;DHT22;10075;50.924;4.396;2023-04-24T02:05:53;9.60;99.90
19829;DHT22;10075;50.924;4.396;2023-04-24T02:08:20;9.60;99.90
19829;DHT22;10075;50.924;4.396;2023-04-24T02:10:47;9.60;99.90
19829;DHT22;10075;50.924;4.396;2023-04-24T02:13:14;9.50;99.90
19829;DHT22;10075;50.924;4.396;2023-04-24T02:15:43;9.60;99.90
19829;DHT22;10075;50.924;4.396;2023-04-24T02:18:10;9.60;99.90
19829;DHT22;10075;50.924;4.396;2023-04-24T02:20:38;9.60;99.90
19829;DHT22;10075;50.924;4.396;2023-04-24T02:23:05;9.60;99.90
19829;DHT22;10075;50.924;4.396;2023-04-24T02:25:33;9.60;99.90
19829;DHT22;10075;50.924;4.396;2023-04-24T02:28:00;9.50;99.90
19829;DHT22;10075;50.924;4.396;2023-04-24T02:30:27;9.50;99.90
19829;DHT22;10075;50.924;4.396;2023-04-24T02:32:56;9.50;99.90
19829;DHT22;10075;50.924;4.396;2023-04-24T02:35:23;9.50;99.90
19829;DHT22;10075;50.924;4.396;2023-04-24T02:37:50;9.50;99.90
19829;DHT22;10075;50.924;4.396;2023-04-24T02:40:17;9.50;99.90
19829;DHT22;10075;50.924;4.396;2023-04-24T02:42:44;9.50;99.90
19829;DHT22;10075;50.924;4.396;2023-04-24T02:45:11;9.50;99.90
19829;DHT22;10075;50.924;4.396;2023-04-24T02:47:38;9.50;99.90
19829;DHT22;10075;50.924;4.396;2023-04-24T02:50:08;9.40;99.90
19829;DHT22;10075;50.924;4.396;2023-04-24T02:52:35;9.40;99.90
19829;DHT22;10075;50.924;4.396;2023-04-24T02:55:02;9.30;99.90
19829;DHT22;10075;50.924;4.396;2023-04-24T02:57:29;9.30;99.90
19829;DHT22;10075;50.924;4.396;2023-04-24T02:59:56;9.30;99.90
19829;DHT22;10075;50.924;4.396;2023-04-24T03:02:23;9.30;99.90
19829;DHT22;10075;50.924;4.396;2023-04-24T03:04:50;9.30;99.90
19829;DHT22;10075;50.924;4.396;2023-04-24T03:07:18;9.30;99.90
19829;DHT22;10075;50.924;4.396;2023-04-24T03:09:46;9.20;99.90
19829;DHT22;10075;50.924;4.396;2023-04-24T03:12:13;9.20;99.90
19829;DHT22;10075;50.924;4.396;2023-04-24T03:14:40;9.20;99.90
19829;DHT22;10075;50.924;4.396;2023-04-24T03:17:07;9.20;99.90
19829;DHT22;10075;50.924;4.396;2023-04-24T03:19:34;9.30;99.90
19829;DHT22;10075;50.924;4.396;2023-04-24T03:22:02;9.30;99.90
19829;DHT22;10075;50.924;4.396;2023-04-24T03:24:30;9.30;99.90
19829;DHT22;10075;50.924;4.396;2023-04-24T03:26:57;9.30;99.90
19829;DHT22;10075;50.924;4.396;2023-04-24T03:29:24;9.20;99.90
19829;DHT22;10075;50.924;4.396;2023-04-24T03:31:51;9.20;99.90
19829;DHT22;10075;50.924;4.396;2023-04-24T03:34:18;9.20;99.90
19829;DHT22;10075;50.924;4.396;2023-04-24T03:36:45;9.10;99.90
19829;DHT22;10075;50.924;4.396;2023-04-24T03:39:14;9.10;99.90
19829;DHT22;10075;50.924;4.396;2023-04-24T03:41:42;9.00;99.90
19829;DHT22;10075;50.924;4.396;2023-04-24T03:44:09;9.00;99.90
19829;DHT22;10075;50.924;4.396;2023-04-24T03:46:36;9.00;99.90
19829;DHT22;10075;50.924;4.396;2023-04-24T03:49:03;9.00;99.90
19829;DHT22;10075;50.924;4.396;2023-04-24T03:51:30;9.00;99.90
19829;DHT22;10075;50.924;4.396;2023-04-24T03:53:57;9.00;99.90
19829;DHT22;10075;50.924;4.396;2023-04-24T03:56:24;9.00;99.90
19829;DHT22;10075;50.924;4.396;2023-04-24T03:58:53;9.00;99.90
19829;DHT22;10075;50.924;4.396;2023-04-24T04:01:20;9.00;99.90
19829;DHT22;10075;50.924;4.396;2023-04-24T04:03:47;9.00;99.90
19829;DHT22;10075;50.924;4.396;2023-04-24T04:06:14;9.00;99.90
19829;DHT22;10075;50.924;4.396;2023-04-24T04:08:41;8.90;99.90
19829;DHT22;10075;50.924;4.396;2023-04-24T04:11:08;8.90;99.90
19829;DHT22;10075;50.924;4.396;2023-04-24T04:13:35;9.00;99.90
19829;DHT22;10075;50.924;4.396;2023-04-24T04:16:03;9.00;99.90
19829;DHT22;10075;50.924;4.396;2023-04-24T04:18:30;9.00;99.90
19829;DHT22;10075;50.924;4.396;2023-04-24T04:20:57;9.00;99.90
19829;DHT22;10075;50.924;4.396;2023-04-24T04:23:26;8.90;99.90
19829;DHT22;10075;50.924;4.396;2023-04-24T04:25:53;8.90;99.90
19829;DHT22;10075;50.924;4.396;2023-04-24T04:28:20;8.90;99.90
19829;DHT22;10075;50.924;4.396;2023-04-24T04:30:47;8.90;99.90
19829;DHT22;10075;50.924;4.396;2023-04-24T04:33:16;8.80;99.90
19829;DHT22;10075;50.924;4.396;2023-04-24T04:35:43;8.90;99.90
19829;DHT22;10075;50.924;4.396;2023-04-24T04:38:14;8.90;99.90
19829;DHT22;10075;50.924;4.396;2023-04-24T04:40:41;8.90;99.90
19829;DHT22;10075;50.924;4.396;2023-04-24T04:43:08;8.80;99.90
19829;DHT22;10075;50.924;4.396;2023-04-24T04:45:36;8.80;99.90
19829;DHT22;10075;50.924;4.396;2023-04-24T04:48:04;8.70;99.90
19829;DHT22;10075;50.924;4.396;2023-04-24T04:50:34;8.80;99.90
19829;DHT22;10075;50.924;4.396;2023-04-24T04:53:01;8.70;99.90
19829;DHT22;10075;50.924;4.396;2023-04-24T04:55:29;8.70;99.90
19829;DHT22;10075;50.924;4.396;2023-04-24T04:57:56;8.70;99.90
19829;DHT22;10075;50.924;4.396;2023-04-24T05:00:23;8.80;99.90
19829;DHT22;10075;50.924;4.396;2023-04-24T05:02:50;8.90;99.90
19829;DHT22;10075;50.924;4.396;2023-04-24T05:05:18;8.90;99.90
19829;DHT22;10075;50.924;4.396;2023-04-24T05:07:46;9.00;99.90
19829;DHT22;10075;50.924;4.396;2023-04-24T05:10:13;9.00;99.90
19829;DHT22;10075;50.924;4.396;2023-04-24T05:12:40;8.90;99.90
19829;DHT22;10075;50.924;4.396;2023-04-24T05:15:08;8.80;99.90
19829;DHT22;10075;50.924;4.396;2023-04-24T05:17:35;8.80;99.90
19829;DHT22;10075;50.924;4.396;2023-04-24T05:20:02;8.70;99.90
19829;DHT22;10075;50.924;4.396;2023-04-24T05:22:30;8.70;99.90
19829;DHT22;10075;50.924;4.396;2023-04-24T05:24:59;8.70;99.90
19829;DHT22;10075;50.924;4.396;2023-04-24T05:27:26;8.80;99.90
19829;DHT22;10075;50.924;4.396;2023-04-24T05:29:53;9.00;99.90
19829;DHT22;10075;50.924;4.396;2023-04-24T05:32:20;9.10;99.90
19829;DHT22;10075;50.924;4.396;2023-04-24T05:34:47;9.00;99.90
19829;DHT22;10075;50.924;4.396;2023-04-24T05:37:14;8.90;99.90
19829;DHT22;10075;50.924;4.396;2023-04-24T05:39:41;9.00;99.90
19829;DHT22;10075;50.924;4.396;2023-04-24T05:42:09;9.00;99.90
19829;DHT22;10075;50.924;4.396;2023-04-24T05:44:36;8.90;99.90
19829;DHT22;10075;50.924;4.396;2023-04-24T05:47:03;8.90;99.90
19829;DHT22;10075;50.924;4.396;2023-04-24T05:49:31;9.00;99.90
19829;DHT22;10075;50.924;4.396;2023-04-24T05:51:58;8.90;99.90
19829;DHT22;10075;50.924;4.396;2023-04-24T05:54:25;8.90;99.90
19829;DHT22;10075;50.924;4.396;2023-04-24T05:56:52;8.90;99.90
19829;DHT22;10075;50.924;4.396;2023-04-24T05:59:21;8.70;99.90
19829;DHT22;10075;50.924;4.396;2023-04-24T06:01:48;8.70;99.90
19829;DHT22;10075;50.924;4.396;2023-04-24T06:04:15;8.80;99.90
19829;DHT22;10075;50.924;4.396;2023-04-24T06:06:42;8.80;99.90
19829;DHT22;10075;50.924;4.396;2023-04-24T06:09:09;8.90;99.90
19829;DHT22;10075;50.924;4.396;2023-04-24T06:11:36;8.90;99.90
19829;DHT22;10075;50.924;4.396;2023-04-24T06:14:03;8.90;99.90
19829;DHT22;10075;50.924;4.396;2023-04-24T06:16:31;8.90;99.90
19829;DHT22;10075;50.924;4.396;2023-04-24T06:18:58;8.80;99.90
19829;DHT22;10075;50.924;4.396;2023-04-24T06:21:25;8.70;99.90
19829;DHT22;10075;50.924;4.396;2023-04-24T06:23:53;8.60;99.90
19829;DHT22;10075;50.924;4.396;2023-04-24T06:26:21;8.60;99.90
19829;DHT22;10075;50.924;4.396;2023-04-24T06:28:50;8.50;99.90
19829;DHT22;10075;50.924;4.396;2023-04-24T06:31:19;8.50;99.90
19829;DHT22;10075;50.924;4.396;2023-04-24T06:33:48;8.70;99.90
19829;DHT22;10075;50.924;4.396;2023-04-24T06:36:18;8.80;99.90
19829;DHT22;10075;50.924;4.396;2023-04-24T06:38:45;8.70;99.90
19829;DHT22;10075;50.924;4.396;2023-04-24T06:41:12;8.60;99.90
19829;DHT22;10075;50.924;4.396;2023-04-24T06:43:39;8.50;99.90
19829;DHT22;10075;50.924;4.396;2023-04-24T06:46:07;8.60;99.90
19829;DHT22;10075;50.924;4.396;2023-04-24T06:48:34;8.70;99.90
19829;DHT22;10075;50.924;4.396;2023-04-24T06:51:02;8.70;99.90
19829;DHT22;10075;50.924;4.396;2023-04-24T06:53:29;8.70;99.90
19829;DHT22;10075;50.924;4.396;2023-04-24T06:55:57;8.70;99.90
19829;DHT22;10075;50.924;4.396;2023-04-24T06:58:24;8.70;99.90
19829;DHT22;10075;50.924;4.396;2023-04-24T07:00:51;8.80;99.90
19829;DHT22;10075;50.924;4.396;2023-04-24T07:03:18;8.80;99.90
19829;DHT22;10075;50.924;4.396;2023-04-24T07:05:45;8.80;99.90
19829;DHT22;10075;50.924;4.396;2023-04-24T07:08:14;8.90;99.90
19829;DHT22;10075;50.924;4.396;2023-04-24T07:10:42;8.90;99.90
19829;DHT22;10075;50.924;4.396;2023-04-24T07:13:09;8.90;99.90
19829;DHT22;10075;50.924;4.396;2023-04-24T07:15:36;9.00;99.90
19829;DHT22;10075;50.924;4.396;2023-04-24T07:18:03;9.10;99.90
19829;DHT22;10075;50.924;4.396;2023-04-24T07:20:30;8.90;99.90
19829;DHT22;10075;50.924;4.396;2023-04-24T07:22:58;8.80;99.90
19829;DHT22;10075;50.924;4.396;2023-04-24T07:25:27;8.90;99.90
19829;DHT22;10075;50.924;4.396;2023-04-24T07:27:54;8.90;99.90
19829;DHT22;10075;50.924;4.396;2023-04-24T07:30:21;8.90;99.90
19829;DHT22;10075;50.924;4.396;2023-04-24T07:32:48;8.80;99.90
19829;DHT22;10075;50.924;4.396;2023-04-24T07:35:15;8.80;99.90
19829;DHT22;10075;50.924;4.396;2023-04-24T07:37:42;8.80;99.90
19829;DHT22;10075;50.924;4.396;2023-04-24T07:40:11;8.70;99.90
19829;DHT22;10075;50.924;4.396;2023-04-24T07:42:40;8.70;99.90
19829;DHT22;10075;50.924;4.396;2023-04-24T07:45:07;8.70;99.90
19829;DHT22;10075;50.924;4.396;2023-04-24T07:47:34;9.00;99.90
19829;DHT22;10075;50.924;4.396;2023-04-24T07:50:03;9.10;99.90
19829;DHT22;10075;50.924;4.396;2023-04-24T07:52:30;9.40;99.90
19829;DHT22;10075;50.924;4.396;2023-04-24T07:54:57;9.70;99.90
19829;DHT22;10075;50.924;4.396;2023-04-24T07:57:25;10.00;99.90
19829;DHT22;10075;50.924;4.396;2023-04-24T07:59:54;10.30;99.90
19829;DHT22;10075;50.924;4.396;2023-04-24T08:02:21;10.40;99.90
19829;DHT22;10075;50.924;4.396;2023-04-24T08:04:52;10.40;99.90
19829;DHT22;10075;50.924;4.396;2023-04-24T08:07:20;10.40;99.90
19829;DHT22;10075;50.924;4.396;2023-04-24T08:09:47;10.10;99.90
19829;DHT22;10075;50.924;4.396;2023-04-24T08:12:14;9.80;99.90
19829;DHT22;10075;50.924;4.396;2023-04-24T08:14:41;9.60;99.90
19829;DHT22;10075;50.924;4.396;2023-04-24T08:17:09;9.70;99.90
19829;DHT22;10075;50.924;4.396;2023-04-24T08:19:36;9.70;99.90
19829;DHT22;10075;50.924;4.396;2023-04-24T08:22:03;9.90;99.90
19829;DHT22;10075;50.924;4.396;2023-04-24T08:24:30;10.00;99.90
19829;DHT22;10075;50.924;4.396;2023-04-24T08:26:57;10.00;99.90
19829;DHT22;10075;50.924;4.396;2023-04-24T08:29:24;9.90;99.90
19829;DHT22;10075;50.924;4.396;2023-04-24T08:31:52;9.90;99.90
19829;DHT22;10075;50.924;4.396;2023-04-24T08:34:22;10.10;99.90
19829;DHT22;10075;50.924;4.396;2023-04-24T08:36:49;10.60;99.90
19829;DHT22;10075;50.924;4.396;2023-04-24T08:39:17;10.90;99.90
19829;DHT22;10075;50.924;4.396;2023-04-24T08:41:44;10.80;99.90
19829;DHT22;10075;50.924;4.396;2023-04-24T08:44:12;10.70;99.90
19829;DHT22;10075;50.924;4.396;2023-04-24T08:46:42;10.70;99.90
19829;DHT22;10075;50.924;4.396;2023-04-24T08:49:09;10.50;99.90
19829;DHT22;10075;50.924;4.396;2023-04-24T08:51:39;10.40;99.90
19829;DHT22;10075;50.924;4.396;2023-04-24T08:54:06;10.40;99.90
19829;DHT22;10075;50.924;4.396;2023-04-24T08:56:34;10.40;99.90
19829;DHT22;10075;50.924;4.396;2023-04-24T08:59:05;10.60;99.90
19829;DHT22;10075;50.924;4.396;2023-04-24T09:01:33;10.50;99.90
19829;DHT22;10075;50.924;4.396;2023-04-24T09:04:02;10.50;99.90
19829;DHT22;10075;50.924;4.396;2023-04-24T09:06:30;10.70;99.90
19829;DHT22;10075;50.924;4.396;2023-04-24T09:09:01;10.90;99.90
19829;DHT22;10075;50.924;4.396;2023-04-24T09:11:30;11.00;99.90
19829;DHT22;10075;50.924;4.396;2023-04-24T09:13:57;11.20;99.90
19829;DHT22;10075;50.924;4.396;2023-04-24T09:16:25;11.50;99.90
19829;DHT22;10075;50.924;4.396;2023-04-24T09:18:53;11.70;99.90
19829;DHT22;10075;50.924;4.396;2023-04-24T09:21:21;11.40;99.90
19829;DHT22;10075;50.924;4.396;2023-04-24T09:23:58;11.30;99.90
19829;DHT22;10075;50.924;4.396;2023-04-24T09:26:29;11.10;99.90
19829;DHT22;10075;50.924;4.396;2023-04-24T09:28:58;11.00;99.90
19829;DHT22;10075;50.924;4.396;2023-04-24T09:31:27;10.90;99.90
19829;DHT22;10075;50.924;4.396;2023-04-24T09:33:56;10.90;99.90
19829;DHT22;10075;50.924;4.396;2023-04-24T09:36:30;11.20;99.90
19829;DHT22;10075;50.924;4.396;2023-04-24T09:38:59;11.40;99.90
19829;DHT22;10075;50.924;4.396;2023-04-24T09:41:28;11.70;99.90
19829;DHT22;10075;50.924;4.396;2023-04-24T09:43:56;12.20;99.90
19829;DHT22;10075;50.924;4.396;2023-04-24T09:46:30;12.60;99.90
19829;DHT22;10075;50.924;4.396;2023-04-24T09:48:57;12.50;99.90
19829;DHT22;10075;50.924;4.396;2023-04-24T09:51:34;12.70;99.90
19829;DHT22;10075;50.924;4.396;2023-04-24T09:54:02;12.40;99.90
19829;DHT22;10075;50.924;4.396;2023-04-24T09:56:33;12.10;99.90
19829;DHT22;10075;50.924;4.396;2023-04-24T09:59:07;12.00;99.90
19829;DHT22;10075;50.924;4.396;2023-04-24T10:01:34;12.50;99.90
19829;DHT22;10075;50.924;4.396;2023-04-24T10:04:02;12.90;99.90
19829;DHT22;10075;50.924;4.396;2023-04-24T10:06:33;12.90;99.90
19829;DHT22;10075;50.924;4.396;2023-04-24T10:09:02;12.90;99.90
19829;DHT22;10075;50.924;4.396;2023-04-24T10:11:30;12.70;99.90
19829;DHT22;10075;50.924;4.396;2023-04-24T10:13:58;12.80;99.90
19829;DHT22;10075;50.924;4.396;2023-04-24T10:16:26;13.00;99.90
19829;DHT22;10075;50.924;4.396;2023-04-24T10:18:54;12.80;99.90
19829;DHT22;10075;50.924;4.396;2023-04-24T10:21:23;13.20;99.90
19829;DHT22;10075;50.924;4.396;2023-04-24T10:23:50;13.90;99.90
19829;DHT22;10075;50.924;4.396;2023-04-24T10:26:18;14.00;99.90
19829;DHT22;10075;50.924;4.396;2023-04-24T10:28:47;13.10;99.90
19829;DHT22;10075;50.924;4.396;2023-04-24T10:31:17;13.10;99.90
19829;DHT22;10075;50.924;4.396;2023-04-24T10:33:46;12.70;99.90
19829;DHT22;10075;50.924;4.396;2023-04-24T10:36:13;12.30;99.90
19829;DHT22;10075;50.924;4.396;2023-04-24T10:38:42;12.30;99.90
19829;DHT22;10075;50.924;4.396;2023-04-24T10:41:11;12.40;99.90
19829;DHT22;10075;50.924;4.396;2023-04-24T10:43:41;13.10;99.90
19829;DHT22;10075;50.924;4.396;2023-04-24T10:46:09;13.60;99.90
19829;DHT22;10075;50.924;4.396;2023-04-24T10:48:42;14.10;99.90
19829;DHT22;10075;50.924;4.396;2023-04-24T10:51:12;13.90;99.90
19829;DHT22;10075;50.924;4.396;2023-04-24T10:53:39;14.10;99.90
19829;DHT22;10075;50.924;4.396;2023-04-24T10:56:08;13.40;99.90
19829;DHT22;10075;50.924;4.396;2023-04-24T10:58:37;13.20;99.90
19829;DHT22;10075;50.924;4.396;2023-04-24T11:01:06;13.10;99.90
19829;DHT22;10075;50.924;4.396;2023-04-24T11:03:34;13.50;99.90
19829;DHT22;10075;50.924;4.396;2023-04-24T11:06:05;13.70;99.90
19829;DHT22;10075;50.924;4.396;2023-04-24T11:08:37;13.60;99.90
19829;DHT22;10075;50.924;4.396;2023-04-24T11:11:09;13.30;99.90
19829;DHT22;10075;50.924;4.396;2023-04-24T11:14:05;13.60;99.90
19829;DHT22;10075;50.924;4.396;2023-04-24T11:16:38;13.30;99.90
19829;DHT22;10075;50.924;4.396;2023-04-24T11:19:09;13.50;99.90
19829;DHT22;10075;50.924;4.396;2023-04-24T11:21:42;13.60;99.90
19829;DHT22;10075;50.924;4.396;2023-04-24T11:24:29;13.80;99.90
19829;DHT22;10075;50.924;4.396;2023-04-24T11:26:59;14.00;99.90
19829;DHT22;10075;50.924;4.396;2023-04-24T11:29:47;14.20;99.90
19829;DHT22;10075;50.924;4.396;2023-04-24T11:32:26;14.20;99.90
19829;DHT22;10075;50.924;4.396;2023-04-24T11:34:55;13.70;99.90
19829;DHT22;10075;50.924;4.396;2023-04-24T11:37:26;13.60;99.90
19829;DHT22;10075;50.924;4.396;2023-04-24T11:39:57;13.40;99.90
19829;DHT22;10075;50.924;4.396;2023-04-24T11:42:28;13.80;99.90
19829;DHT22;10075;50.924;4.396;2023-04-24T11:44:55;13.50;99.90
19829;DHT22;10075;50.924;4.396;2023-04-24T11:47:29;13.00;99.90
19829;DHT22;10075;50.924;4.396;2023-04-24T11:49:58;12.80;99.90
19829;DHT22;10075;50.924;4.396;2023-04-24T11:52:27;13.00;99.90
19829;DHT22;10075;50.924;4.396;2023-04-24T11:54:54;13.50;99.90
19829;DHT22;10075;50.924;4.396;2023-04-24T11:57:23;14.10;99.90
19829;DHT22;10075;50.924;4.396;2023-04-24T11:59:53;14.10;99.90
19829;DHT22;10075;50.924;4.396;2023-04-24T12:02:22;14.10;99.90
19829;DHT22;10075;50.924;4.396;2023-04-24T12:04:49;14.10;99.90
19829;DHT22;10075;50.924;4.396;2023-04-24T12:07:17;14.20;99.90
19829;DHT22;10075;50.924;4.396;2023-04-24T12:09:46;14.30;99.90
19829;DHT22;10075;50.924;4.396;2023-04-24T12:12:16;14.40;99.90
19829;DHT22;10075;50.924;4.396;2023-04-24T12:14:44;14.60;99.90
19829;DHT22;10075;50.924;4.396;2023-04-24T12:17:12;14.30;99.90
19829;DHT22;10075;50.924;4.396;2023-04-24T12:19:45;14.50;99.90
19829;DHT22;10075;50.924;4.396;2023-04-24T12:22:13;14.50;99.90
19829;DHT22;10075;50.924;4.396;2023-04-24T12:24:57;14.50;99.90
19829;DHT22;10075;50.924;4.396;2023-04-24T12:27:25;14.50;99.90
19829;DHT22;10075;50.924;4.396;2023-04-24T12:29:53;14.20;99.90
19829;DHT22;10075;50.924;4.396;2023-04-24T12:32:20;14.30;99.90
19829;DHT22;10075;50.924;4.396;2023-04-24T12:34:47;14.40;99.90
19829;DHT22;10075;50.924;4.396;2023-04-24T12:37:16;14.90;99.90
19829;DHT22;10075;50.924;4.396;2023-04-24T12:39:59;14.70;99.90
19829;DHT22;10075;50.924;4.396;2023-04-24T12:42:27;14.70;99.90
19829;DHT22;10075;50.924;4.396;2023-04-24T12:45:02;14.80;99.90
19829;DHT22;10075;50.924;4.396;2023-04-24T12:47:33;14.70;99.90
19829;DHT22;10075;50.924;4.396;2023-04-24T12:50:02;14.50;99.90
19829;DHT22;10075;50.924;4.396;2023-04-24T12:52:30;13.90;99.90
19829;DHT22;10075;50.924;4.396;2023-04-24T12:55:00;13.50;99.90
19829;DHT22;10075;50.924;4.396;2023-04-24T12:57:29;13.10;99.90
19829;DHT22;10075;50.924;4.396;2023-04-24T12:59:57;13.00;99.90
19829;DHT22;10075;50.924;4.396;2023-04-24T13:02:26;13.00;99.90
19829;DHT22;10075;50.924;4.396;2023-04-24T13:04:53;13.00;99.90
19829;DHT22;10075;50.924;4.396;2023-04-24T13:07:24;12.80;99.90
19829;DHT22;10075;50.924;4.396;2023-04-24T13:09:51;12.80;99.90
19829;DHT22;10075;50.924;4.396;2023-04-24T13:12:20;13.00;99.90
19829;DHT22;10075;50.924;4.396;2023-04-24T13:14:49;13.20;99.90
19829;DHT22;10075;50.924;4.396;2023-04-24T13:17:16;13.40;99.90
19829;DHT22;10075;50.924;4.396;2023-04-24T13:19:44;13.50;99.90
19829;DHT22;10075;50.924;4.396;2023-04-24T13:22:12;13.50;99.90
19829;DHT22;10075;50.924;4.396;2023-04-24T13:24:40;13.60;99.90
19829;DHT22;10075;50.924;4.396;2023-04-24T13:27:07;14.00;99.90
19829;DHT22;10075;50.924;4.396;2023-04-24T13:29:38;14.70;99.90
19829;DHT22;10075;50.924;4.396;2023-04-24T13:32:09;15.00;99.90
19829;DHT22;10075;50.924;4.396;2023-04-24T13:34:36;14.40;99.90
19829;DHT22;10075;50.924;4.396;2023-04-24T13:37:04;14.20;99.90
19829;DHT22;10075;50.924;4.396;2023-04-24T13:39:32;14.00;99.90
19829;DHT22;10075;50.924;4.396;2023-04-24T13:42:01;13.80;99.90
19829;DHT22;10075;50.924;4.396;2023-04-24T13:44:28;13.80;99.90
19829;DHT22;10075;50.924;4.396;2023-04-24T13:46:57;13.80;99.90
19829;DHT22;10075;50.924;4.396;2023-04-24T13:49:25;13.80;99.90
19829;DHT22;10075;50.924;4.396;2023-04-24T13:51:53;13.80;99.90
19829;DHT22;10075;50.924;4.396;2023-04-24T13:54:21;13.60;99.90
19829;DHT22;10075;50.924;4.396;2023-04-24T13:56:49;13.80;99.90
19829;DHT22;10075;50.924;4.396;2023-04-24T13:59:16;13.90;99.90
19829;DHT22;10075;50.924;4.396;2023-04-24T14:01:43;14.10;99.90
19829;DHT22;10075;50.924;4.396;2023-04-24T14:04:12;14.40;99.90
19829;DHT22;10075;50.924;4.396;2023-04-24T14:06:39;14.20;99.90
19829;DHT22;10075;50.924;4.396;2023-04-24T14:09:06;14.50;99.90
19829;DHT22;10075;50.924;4.396;2023-04-24T14:11:34;14.50;99.90
19829;DHT22;10075;50.924;4.396;2023-04-24T14:14:01;14.30;99.90
19829;DHT22;10075;50.924;4.396;2023-04-24T14:16:28;14.10;99.90
19829;DHT22;10075;50.924;4.396;2023-04-24T14:18:56;14.10;99.90
19829;DHT22;10075;50.924;4.396;2023-04-24T14:21:24;13.70;99.90
19829;DHT22;10075;50.924;4.396;2023-04-24T14:23:51;14.10;99.90
19829;DHT22;10075;50.924;4.396;2023-04-24T14:26:19;14.70;99.90
19829;DHT22;10075;50.924;4.396;2023-04-24T14:28:47;14.50;99.90
19829;DHT22;10075;50.924;4.396;2023-04-24T14:31:14;14.40;99.90
19829;DHT22;10075;50.924;4.396;2023-04-24T14:33:41;14.80;99.90
19829;DHT22;10075;50.924;4.396;2023-04-24T14:36:08;15.00;99.90
19829;DHT22;10075;50.924;4.396;2023-04-24T14:38:36;15.50;99.90
19829;DHT22;10075;50.924;4.396;2023-04-24T14:41:03;16.00;99.90
19829;DHT22;10075;50.924;4.396;2023-04-24T14:43:34;16.50;99.90
19829;DHT22;10075;50.924;4.396;2023-04-24T14:46:02;15.70;99.90
19829;DHT22;10075;50.924;4.396;2023-04-24T14:48:29;15.70;99.90
19829;DHT22;10075;50.924;4.396;2023-04-24T14:50:56;15.90;99.90
19829;DHT22;10075;50.924;4.396;2023-04-24T14:53:23;16.40;99.90
19829;DHT22;10075;50.924;4.396;2023-04-24T14:55:51;15.90;99.90
19829;DHT22;10075;50.924;4.396;2023-04-24T14:58:18;15.50;99.90
19829;DHT22;10075;50.924;4.396;2023-04-24T15:00:45;15.20;99.90
19829;DHT22;10075;50.924;4.396;2023-04-24T15:03:15;15.20;99.90
19829;DHT22;10075;50.924;4.396;2023-04-24T15:05:43;15.50;99.90
19829;DHT22;10075;50.924;4.396;2023-04-24T15:08:10;15.40;99.90
19829;DHT22;10075;50.924;4.396;2023-04-24T15:10:37;14.40;99.90
19829;DHT22;10075;50.924;4.396;2023-04-24T15:13:05;14.10;99.90
19829;DHT22;10075;50.924;4.396;2023-04-24T15:15:32;13.70;99.90
19829;DHT22;10075;50.924;4.396;2023-04-24T15:18:00;13.50;99.90
19829;DHT22;10075;50.924;4.396;2023-04-24T15:20:26;13.70;99.90
19829;DHT22;10075;50.924;4.396;2023-04-24T15:22:53;13.80;99.90
19829;DHT22;10075;50.924;4.396;2023-04-24T15:25:21;13.60;99.90
19829;DHT22;10075;50.924;4.396;2023-04-24T15:27:48;13.80;99.90
19829;DHT22;10075;50.924;4.396;2023-04-24T15:30:16;14.30;99.90
19829;DHT22;10075;50.924;4.396;2023-04-24T15:32:44;14.40;99.90
19829;DHT22;10075;50.924;4.396;2023-04-24T15:35:11;14.60;99.90
19829;DHT22;10075;50.924;4.396;2023-04-24T15:37:38;14.40;99.90
19829;DHT22;10075;50.924;4.396;2023-04-24T15:40:06;14.60;99.90
19829;DHT22;10075;50.924;4.396;2023-04-24T15:42:34;14.20;99.90